Time;durP1;ratioP1;P1;durP2;ratioP2;P2;SDS_P1;SDS_P2;PMS_P1;PMS_P2;Temp;Humidity;BMP_temperature;BMP_pressure;BME280_temperature;BME280_humidity;BME280_pressure;Samples;Min_cycle;Max_cycle;Signal;HPM_P1;HPM_P2
2023/07/03 00:01:49;;;;;;;;;;;21.70;99.90;;;;;;5117403;28;20016;-62
2023/07/03 00:04:15;;;;;;;;;;;21.70;99.90;;;;;;5117223;28;20419;-62
2023/07/03 00:06:40;;;;;;;;;;;21.70;99.90;;;;;;5117453;28;19989;-63
2023/07/03 00:09:06;;;;;;;;;;;21.70;99.80;;;;;;5117189;28;20328;-65
2023/07/03 00:11:32;;;;;;;;;;;21.60;99.60;;;;;;5116967;28;20023;-63
2023/07/03 00:13:58;;;;;;;;;;;21.60;99.60;;;;;;5117279;28;20028;-63
2023/07/03 00:16:23;;;;;;;;;;;21.60;99.50;;;;;;5117000;28;20051;-62
2023/07/03 00:18:49;;;;;;;;;;;21.60;99.60;;;;;;5117086;28;20481;-64
2023/07/03 00:21:14;;;;;;;;;;;21.60;99.70;;;;;;5117181;28;20382;-62
2023/07/03 00:23:40;;;;;;;;;;;21.50;99.60;;;;;;5099064;28;19999;-62
2023/07/03 00:26:06;;;;;;;;;;;21.50;99.70;;;;;;5116770;28;19984;-63
2023/07/03 00:28:31;;;;;;;;;;;21.50;99.70;;;;;;5117235;28;20441;-63
2023/07/03 00:30:57;;;;;;;;;;;21.50;99.80;;;;;;5116945;28;20494;-64
2023/07/03 00:33:22;;;;;;;;;;;21.30;99.90;;;;;;5116839;28;20328;-63
2023/07/03 00:35:48;;;;;;;;;;;21.20;99.90;;;;;;5116643;28;20330;-63
2023/07/03 00:38:13;;;;;;;;;;;21.10;99.90;;;;;;5116749;28;20043;-64
2023/07/03 00:40:39;;;;;;;;;;;21.10;99.90;;;;;;5116538;28;19991;-63
2023/07/03 00:43:05;;;;;;;;;;;21.10;99.90;;;;;;5116566;28;19988;-64
2023/07/03 00:45:32;;;;;;;;;;;21.10;99.90;;;;;;5116849;28;20020;-64
2023/07/03 00:47:58;;;;;;;;;;;21.10;99.90;;;;;;5116601;28;20366;-63
2023/07/03 00:50:23;;;;;;;;;;;21.10;99.90;;;;;;5116417;28;19984;-63
2023/07/03 00:52:52;;;;;;;;;;;21.00;99.90;;;;;;5116716;28;19988;-63
2023/07/03 00:55:17;;;;;;;;;;;21.00;99.90;;;;;;5115619;28;19989;-65
2023/07/03 00:57:43;;;;;;;;;;;21.00;99.90;;;;;;5116121;28;20016;-63
2023/07/03 01:00:09;;;;;;;;;;;21.00;99.90;;;;;;5116460;28;19988;-62
2023/07/03 01:02:40;;;;;;;;;;;21.10;99.90;;;;;;5116241;28;19989;-64
2023/07/03 01:05:24;;;;;;;;;;;21.00;99.90;;;;;;5116167;28;20037;-64
2023/07/03 01:07:51;;;;;;;;;;;21.00;99.90;;;;;;5116199;28;20389;-62
2023/07/03 01:10:21;;;;;;;;;;;21.00;99.90;;;;;;5115942;28;20030;-63
2023/07/03 01:12:50;;;;;;;;;;;21.00;99.90;;;;;;5116116;28;19985;-62
2023/07/03 01:15:17;;;;;;;;;;;21.00;99.90;;;;;;5116016;28;19988;-64
2023/07/03 01:17:44;;;;;;;;;;;20.90;99.90;;;;;;5116126;28;20009;-64
2023/07/03 01:20:13;;;;;;;;;;;20.90;99.90;;;;;;5115952;28;20452;-62
2023/07/03 01:22:44;;;;;;;;;;;20.80;99.90;;;;;;5115932;28;20019;-64
2023/07/03 01:25:14;;;;;;;;;;;20.80;99.90;;;;;;5115647;28;20600;-63
2023/07/03 01:27:41;;;;;;;;;;;20.80;99.90;;;;;;5116030;28;19989;-64
2023/07/03 01:30:09;;;;;;;;;;;20.90;99.90;;;;;;5115825;28;19992;-64
2023/07/03 01:32:35;;;;;;;;;;;20.90;99.90;;;;;;5115622;28;20067;-63
2023/07/03 01:35:03;;;;;;;;;;;20.90;99.90;;;;;;5115915;28;20027;-62
2023/07/03 01:37:30;;;;;;;;;;;20.80;99.90;;;;;;5115802;28;20008;-62
2023/07/03 01:39:56;;;;;;;;;;;20.80;99.90;;;;;;5115315;28;19989;-62
2023/07/03 01:42:22;;;;;;;;;;;20.80;99.90;;;;;;5115652;28;19988;-64
2023/07/03 01:44:48;;;;;;;;;;;20.70;99.90;;;;;;5115701;28;20091;-62
2023/07/03 01:47:14;;;;;;;;;;;20.70;99.90;;;;;;5115211;28;20490;-63
2023/07/03 01:49:39;;;;;;;;;;;20.70;99.90;;;;;;5115318;28;19992;-63
2023/07/03 01:52:08;;;;;;;;;;;20.70;99.90;;;;;;5115465;28;20027;-62
2023/07/03 01:54:37;;;;;;;;;;;20.70;99.90;;;;;;5115170;28;19993;-64
2023/07/03 01:57:03;;;;;;;;;;;20.70;99.90;;;;;;5115321;28;20013;-64
2023/07/03 01:59:31;;;;;;;;;;;20.60;99.90;;;;;;5115290;28;20097;-63
2023/07/03 02:02:02;;;;;;;;;;;20.50;99.90;;;;;;5115074;28;19985;-62
2023/07/03 02:04:33;;;;;;;;;;;20.30;99.90;;;;;;5115309;28;20407;-64
2023/07/03 02:06:59;;;;;;;;;;;20.20;99.90;;;;;;5114192;28;20034;-64
2023/07/03 02:09:25;;;;;;;;;;;20.20;99.90;;;;;;5114708;28;20079;-64
2023/07/03 02:11:51;;;;;;;;;;;20.10;99.90;;;;;;5114871;28;20138;-64
2023/07/03 02:14:17;;;;;;;;;;;20.10;99.90;;;;;;5114964;28;19985;-62
2023/07/03 02:16:46;;;;;;;;;;;20.20;99.90;;;;;;5115008;28;20016;-64
2023/07/03 02:19:14;;;;;;;;;;;20.20;99.90;;;;;;5114815;28;20366;-62
2023/07/03 02:21:39;;;;;;;;;;;20.30;99.90;;;;;;5114534;28;19988;-64
2023/07/03 02:24:05;;;;;;;;;;;20.40;99.90;;;;;;5114597;28;19991;-62
2023/07/03 02:26:31;;;;;;;;;;;20.40;99.90;;;;;;5114781;28;20020;-64
2023/07/03 02:28:56;;;;;;;;;;;20.40;99.90;;;;;;5114942;28;19989;-64
2023/07/03 02:31:22;;;;;;;;;;;20.40;99.90;;;;;;5114521;28;20040;-64
2023/07/03 02:33:48;;;;;;;;;;;20.40;99.90;;;;;;5114660;28;19984;-63
2023/07/03 02:36:14;;;;;;;;;;;20.40;99.90;;;;;;5114185;28;20535;-62
2023/07/03 02:38:39;;;;;;;;;;;20.40;99.90;;;;;;5114487;28;19989;-65
2023/07/03 02:41:05;;;;;;;;;;;20.40;99.90;;;;;;5114308;28;20494;-64
2023/07/03 02:43:30;;;;;;;;;;;20.40;99.90;;;;;;5114392;28;20011;-64
2023/07/03 02:46:01;;;;;;;;;;;20.40;99.90;;;;;;5114263;28;20017;-63
2023/07/03 02:48:26;;;;;;;;;;;20.30;99.90;;;;;;5114308;28;19994;-62
2023/07/03 02:50:52;;;;;;;;;;;20.40;99.90;;;;;;5114132;28;20079;-63
2023/07/03 02:53:18;;;;;;;;;;;20.30;99.90;;;;;;5114306;28;19985;-63
2023/07/03 02:55:43;;;;;;;;;;;20.30;99.90;;;;;;5114298;28;20089;-64
2023/07/03 02:58:09;;;;;;;;;;;20.30;99.90;;;;;;5114267;28;20011;-63
2023/07/03 03:00:35;;;;;;;;;;;20.20;99.90;;;;;;5114268;28;20447;-63
2023/07/03 03:03:00;;;;;;;;;;;20.20;99.90;;;;;;5114289;28;20072;-62
2023/07/03 03:05:26;;;;;;;;;;;20.30;99.90;;;;;;5114080;28;19985;-63
2023/07/03 03:07:52;;;;;;;;;;;20.20;99.90;;;;;;5114201;28;19992;-64
2023/07/03 03:10:17;;;;;;;;;;;20.20;99.90;;;;;;5114303;28;19995;-63
2023/07/03 03:12:43;;;;;;;;;;;20.20;99.90;;;;;;5114094;28;20435;-63
2023/07/03 03:15:08;;;;;;;;;;;20.20;99.90;;;;;;5114124;28;20370;-64
2023/07/03 03:17:34;;;;;;;;;;;20.20;99.90;;;;;;5115932;28;20027;-62
2023/07/03 03:20:00;;;;;;;;;;;20.20;99.90;;;;;;5118296;28;19999;-64
2023/07/03 03:22:25;;;;;;;;;;;20.20;99.90;;;;;;5118520;28;20332;-64
2023/07/03 03:24:51;;;;;;;;;;;20.20;99.90;;;;;;5118265;28;20079;-64
2023/07/03 03:27:16;;;;;;;;;;;20.20;99.90;;;;;;5118002;28;19984;-64
2023/07/03 03:29:42;;;;;;;;;;;20.20;99.90;;;;;;5118065;28;19989;-64
2023/07/03 03:32:08;;;;;;;;;;;20.20;99.90;;;;;;5118074;28;19984;-63
2023/07/03 03:34:34;;;;;;;;;;;20.20;99.90;;;;;;5117729;28;20355;-63
2023/07/03 03:37:00;;;;;;;;;;;20.20;99.90;;;;;;5117911;28;20458;-62
2023/07/03 03:39:26;;;;;;;;;;;20.20;99.90;;;;;;5117902;28;19988;-64
2023/07/03 03:41:51;;;;;;;;;;;20.30;99.90;;;;;;5117773;28;20079;-65
2023/07/03 03:44:17;;;;;;;;;;;20.30;99.90;;;;;;5117966;28;19985;-63
2023/07/03 03:46:42;;;;;;;;;;;20.30;99.90;;;;;;5117616;28;20500;-63
2023/07/03 03:49:10;;;;;;;;;;;20.30;99.90;;;;;;5117564;28;20083;-63
2023/07/03 03:51:36;;;;;;;;;;;20.20;99.90;;;;;;5117665;28;19985;-63
2023/07/03 03:54:02;;;;;;;;;;;20.20;99.90;;;;;;5117889;28;20110;-64
2023/07/03 03:56:27;;;;;;;;;;;20.20;99.90;;;;;;5117457;28;20015;-64
2023/07/03 03:58:53;;;;;;;;;;;20.20;99.90;;;;;;5117356;28;19992;-63
2023/07/03 04:01:18;;;;;;;;;;;20.20;99.90;;;;;;5117463;28;20079;-64
2023/07/03 04:03:44;;;;;;;;;;;20.20;99.90;;;;;;5117268;28;20030;-64
2023/07/03 04:06:09;;;;;;;;;;;20.20;99.90;;;;;;5117301;28;19984;-64
2023/07/03 04:08:35;;;;;;;;;;;20.20;99.90;;;;;;5117405;28;19991;-63
2023/07/03 04:11:01;;;;;;;;;;;20.30;99.90;;;;;;5117784;28;19997;-63
2023/07/03 04:13:27;;;;;;;;;;;20.40;99.90;;;;;;5117221;28;19984;-62
2023/07/03 04:15:52;;;;;;;;;;;20.40;99.90;;;;;;5117263;28;19985;-62
2023/07/03 04:18:19;;;;;;;;;;;20.40;99.90;;;;;;5116910;28;20008;-63
2023/07/03 04:20:44;;;;;;;;;;;20.50;99.90;;;;;;5117399;28;20043;-62
2023/07/03 04:23:10;;;;;;;;;;;20.60;99.90;;;;;;5117063;28;20450;-64
2023/07/03 04:25:35;;;;;;;;;;;20.70;99.90;;;;;;5117216;28;20387;-64
2023/07/03 04:28:01;;;;;;;;;;;20.70;99.90;;;;;;5116296;28;20101;-63
2023/07/03 04:30:26;;;;;;;;;;;20.90;99.90;;;;;;5116330;28;19984;-62
2023/07/03 04:32:54;;;;;;;;;;;20.90;99.90;;;;;;5116663;28;19991;-64
2023/07/03 04:35:23;;;;;;;;;;;21.00;99.90;;;;;;5116856;28;20431;-62
2023/07/03 04:37:49;;;;;;;;;;;21.00;99.90;;;;;;5116662;28;20008;-63
2023/07/03 04:40:15;;;;;;;;;;;21.10;99.90;;;;;;5116785;28;19995;-62
2023/07/03 04:42:41;;;;;;;;;;;21.00;99.90;;;;;;5116654;28;19989;-64
2023/07/03 04:45:07;;;;;;;;;;;21.00;99.90;;;;;;5116688;28;20427;-63
2023/07/03 04:47:33;;;;;;;;;;;21.00;99.90;;;;;;5116455;28;20091;-62
2023/07/03 04:49:58;;;;;;;;;;;20.90;99.90;;;;;;5116576;28;20024;-65
2023/07/03 04:52:27;;;;;;;;;;;21.00;99.90;;;;;;5116416;28;20444;-62
2023/07/03 04:54:56;;;;;;;;;;;21.00;99.90;;;;;;5116491;28;20088;-62
2023/07/03 04:57:21;;;;;;;;;;;21.00;99.90;;;;;;5116177;28;20016;-64
2023/07/03 04:59:48;;;;;;;;;;;21.10;99.90;;;;;;5116335;28;19995;-64
2023/07/03 05:02:17;;;;;;;;;;;21.10;99.90;;;;;;5116216;28;20019;-64
2023/07/03 05:04:43;;;;;;;;;;;21.10;99.90;;;;;;5116236;28;20442;-62
2023/07/03 05:07:08;;;;;;;;;;;21.20;99.90;;;;;;5116060;28;20037;-63
2023/07/03 05:09:34;;;;;;;;;;;21.30;99.90;;;;;;5116167;28;20040;-62
2023/07/03 05:11:59;;;;;;;;;;;21.30;99.90;;;;;;5116276;28;19988;-62
2023/07/03 05:14:25;;;;;;;;;;;21.30;99.90;;;;;;5115940;28;20083;-62
2023/07/03 05:16:51;;;;;;;;;;;21.30;99.90;;;;;;5115534;28;20016;-62
2023/07/03 05:19:16;;;;;;;;;;;21.30;99.90;;;;;;5115924;28;19996;-63
2023/07/03 05:21:42;;;;;;;;;;;21.30;99.90;;;;;;5115765;28;19993;-64
2023/07/03 05:24:07;;;;;;;;;;;21.20;99.90;;;;;;5115690;28;20020;-62
2023/07/03 05:26:33;;;;;;;;;;;21.20;99.90;;;;;;5115794;28;20039;-63
2023/07/03 05:28:59;;;;;;;;;;;21.30;99.90;;;;;;5115567;28;19989;-62
2023/07/03 05:31:24;;;;;;;;;;;21.40;99.90;;;;;;5115280;28;19996;-64
2023/07/03 05:33:50;;;;;;;;;;;21.50;99.90;;;;;;5115623;28;19988;-62
2023/07/03 05:36:16;;;;;;;;;;;21.70;99.90;;;;;;5115403;28;20459;-62
2023/07/03 05:38:41;;;;;;;;;;;21.70;99.90;;;;;;5115374;28;20091;-64
2023/07/03 05:41:07;;;;;;;;;;;21.80;99.90;;;;;;5115435;28;19989;-64
2023/07/03 05:43:33;;;;;;;;;;;21.90;99.90;;;;;;5115347;28;20016;-63
2023/07/03 05:45:58;;;;;;;;;;;22.10;99.90;;;;;;5114949;28;20055;-64
2023/07/03 05:48:24;;;;;;;;;;;22.20;99.90;;;;;;5115420;28;20003;-63
2023/07/03 05:50:49;;;;;;;;;;;22.40;99.90;;;;;;5115253;28;19985;-65
2023/07/03 05:53:15;;;;;;;;;;;22.40;99.90;;;;;;5115282;28;19985;-62
2023/07/03 05:55:41;;;;;;;;;;;22.50;99.20;;;;;;5114988;28;19993;-63
2023/07/03 05:58:06;;;;;;;;;;;22.70;98.60;;;;;;5115372;28;20060;-64
2023/07/03 06:00:32;;;;;;;;;;;22.80;98.20;;;;;;5115182;28;19993;-62
2023/07/03 06:02:59;;;;;;;;;;;22.80;97.80;;;;;;5115008;28;19985;-64
2023/07/03 06:05:24;;;;;;;;;;;22.80;98.10;;;;;;5115341;28;20023;-64
2023/07/03 06:07:50;;;;;;;;;;;22.70;97.70;;;;;;5114952;28;19993;-63
2023/07/03 06:10:16;;;;;;;;;;;22.90;98.70;;;;;;5114908;28;19985;-64
2023/07/03 06:12:42;;;;;;;;;;;23.10;97.40;;;;;;5114928;28;19995;-62
2023/07/03 06:15:07;;;;;;;;;;;23.30;97.40;;;;;;5114726;28;19985;-64
2023/07/03 06:17:33;;;;;;;;;;;23.50;95.60;;;;;;5114736;28;20103;-64
2023/07/03 06:19:59;;;;;;;;;;;23.70;95.00;;;;;;5114674;28;20470;-63
2023/07/03 06:22:24;;;;;;;;;;;23.90;93.90;;;;;;5114731;28;19985;-63
2023/07/03 06:24:50;;;;;;;;;;;24.00;92.10;;;;;;5114713;28;19988;-64
2023/07/03 06:27:16;;;;;;;;;;;24.20;91.60;;;;;;5114588;28;19992;-63
2023/07/03 06:29:42;;;;;;;;;;;24.40;91.80;;;;;;5114742;28;20393;-64
2023/07/03 06:32:09;;;;;;;;;;;24.50;91.60;;;;;;5114848;28;20067;-64
2023/07/03 06:34:34;;;;;;;;;;;24.60;90.20;;;;;;5114444;28;20427;-64
2023/07/03 06:37:02;;;;;;;;;;;24.70;90.20;;;;;;5114391;28;20015;-64
2023/07/03 06:39:28;;;;;;;;;;;24.70;89.60;;;;;;5114502;28;20079;-65
2023/07/03 06:41:54;;;;;;;;;;;24.70;90.30;;;;;;5114264;28;20031;-64
2023/07/03 06:44:20;;;;;;;;;;;24.80;90.00;;;;;;5114295;28;19999;-64
2023/07/03 06:46:45;;;;;;;;;;;25.00;89.70;;;;;;5114213;28;20483;-64
2023/07/03 06:49:11;;;;;;;;;;;25.10;90.60;;;;;;5114335;28;20017;-65
2023/07/03 06:51:36;;;;;;;;;;;25.20;89.60;;;;;;5113710;28;19984;-64
2023/07/03 06:54:02;;;;;;;;;;;25.30;87.30;;;;;;5114234;28;20451;-63
2023/07/03 06:56:28;;;;;;;;;;;25.40;85.50;;;;;;5114100;28;20020;-64
2023/07/03 06:58:54;;;;;;;;;;;25.50;81.20;;;;;;5114063;28;19996;-63
2023/07/03 07:01:21;;;;;;;;;;;25.50;83.30;;;;;;5114330;28;19984;-64
2023/07/03 07:03:47;;;;;;;;;;;25.60;84.20;;;;;;5114215;28;19995;-63
2023/07/03 07:06:17;;;;;;;;;;;25.50;84.90;;;;;;5114285;28;19995;-64
2023/07/03 07:08:43;;;;;;;;;;;25.40;79.60;;;;;;5114234;28;20039;-64
2023/07/03 07:11:10;;;;;;;;;;;25.30;84.70;;;;;;5113876;28;20024;-63
2023/07/03 07:13:37;;;;;;;;;;;25.30;79.40;;;;;;5114033;28;19984;-64
2023/07/03 07:16:03;;;;;;;;;;;25.40;82.80;;;;;;5114106;28;19985;-64
2023/07/03 07:18:28;;;;;;;;;;;25.50;80.90;;;;;;5114035;28;19995;-64
2023/07/03 07:20:54;;;;;;;;;;;25.60;78.20;;;;;;5113919;28;20030;-65
2023/07/03 07:23:20;;;;;;;;;;;25.60;74.90;;;;;;5113703;28;20041;-65
2023/07/03 07:25:51;;;;;;;;;;;25.70;72.40;;;;;;5113685;28;20035;-65
2023/07/03 07:28:17;;;;;;;;;;;25.70;70.20;;;;;;5113762;28;19984;-63
2023/07/03 07:30:42;;;;;;;;;;;25.80;67.20;;;;;;5114147;28;19992;-64
2023/07/03 07:33:08;;;;;;;;;;;25.80;72.70;;;;;;5113985;28;20450;-62
2023/07/03 07:35:35;;;;;;;;;;;26.00;71.70;;;;;;5113842;28;19985;-63
2023/07/03 07:38:00;;;;;;;;;;;26.10;68.30;;;;;;5113798;28;20009;-64
2023/07/03 07:40:26;;;;;;;;;;;26.20;71.00;;;;;;5113818;28;20637;-64
2023/07/03 07:42:52;;;;;;;;;;;26.40;68.40;;;;;;5113159;28;19985;-64
2023/07/03 07:45:17;;;;;;;;;;;26.60;65.60;;;;;;5113752;28;20763;-63
2023/07/03 07:47:43;;;;;;;;;;;26.80;69.90;;;;;;5112956;28;20515;-64
2023/07/03 07:50:08;;;;;;;;;;;28.50;66.90;;;;;;5113966;28;20057;-63
2023/07/03 07:52:35;;;;;;;;;;;31.10;57.40;;;;;;5113572;28;20011;-64
2023/07/03 07:55:00;;;;;;;;;;;33.20;52.40;;;;;;5113590;28;20038;-63
2023/07/03 07:57:29;;;;;;;;;;;34.70;51.50;;;;;;5113752;28;20012;-65
2023/07/03 07:59:54;;;;;;;;;;;36.00;46.50;;;;;;5113571;28;20011;-64
2023/07/03 08:02:20;;;;;;;;;;;37.00;46.70;;;;;;5113715;28;20506;-63
2023/07/03 08:04:46;;;;;;;;;;;37.90;45.00;;;;;;5117370;28;19985;-63
2023/07/03 08:07:11;;;;;;;;;;;37.90;42.00;;;;;;5117268;28;20028;-65
2023/07/03 08:09:38;;;;;;;;;;;38.70;42.60;;;;;;5117071;28;20036;-64
2023/07/03 08:12:04;;;;;;;;;;;38.50;39.30;;;;;;5117282;28;20425;-64
2023/07/03 08:14:30;;;;;;;;;;;38.60;42.30;;;;;;5117122;28;20094;-65
2023/07/03 08:16:55;;;;;;;;;;;39.00;40.00;;;;;;5117206;28;20018;-63
2023/07/03 08:19:21;;;;;;;;;;;39.50;39.50;;;;;;5117244;28;19989;-63
2023/07/03 08:21:47;;;;;;;;;;;40.00;38.50;;;;;;5116929;28;20000;-65
2023/07/03 08:24:12;;;;;;;;;;;40.10;36.90;;;;;;5116738;28;19988;-64
2023/07/03 08:26:38;;;;;;;;;;;39.80;39.50;;;;;;5116336;28;19985;-64
2023/07/03 08:29:03;;;;;;;;;;;40.00;37.70;;;;;;5116728;28;20075;-65
2023/07/03 08:31:29;;;;;;;;;;;40.30;37.50;;;;;;5116808;28;19992;-65
2023/07/03 08:33:55;;;;;;;;;;;40.50;40.10;;;;;;5117041;28;19996;-64
2023/07/03 08:36:21;;;;;;;;;;;40.60;37.80;;;;;;5116204;28;20024;-64
2023/07/03 08:38:46;;;;;;;;;;;40.60;37.70;;;;;;5116548;28;19999;-63
2023/07/03 08:41:13;;;;;;;;;;;40.80;37.80;;;;;;5116272;28;20358;-64
2023/07/03 08:43:42;;;;;;;;;;;40.80;37.00;;;;;;5116570;28;19989;-65
2023/07/03 08:46:09;;;;;;;;;;;40.90;38.10;;;;;;5116237;28;20025;-63
2023/07/03 08:48:35;;;;;;;;;;;40.80;37.60;;;;;;5116617;28;19989;-65
2023/07/03 08:51:02;;;;;;;;;;;41.00;37.50;;;;;;5116561;28;20437;-63
2023/07/03 08:53:34;;;;;;;;;;;40.80;39.10;;;;;;5116077;28;19988;-64
2023/07/03 08:56:03;;;;;;;;;;;40.70;38.40;;;;;;5116553;28;20009;-65
2023/07/03 08:58:28;;;;;;;;;;;40.80;37.10;;;;;;5116295;28;20011;-63
2023/07/03 09:01:06;;;;;;;;;;;41.00;38.90;;;;;;5116207;28;20026;-64
2023/07/03 09:03:43;;;;;;;;;;;40.90;38.20;;;;;;5116275;28;19989;-64
2023/07/03 09:06:09;;;;;;;;;;;41.00;38.90;;;;;;5116229;28;19991;-65
2023/07/03 09:08:53;;;;;;;;;;;40.70;38.50;;;;;;5115636;28;20378;-64
2023/07/03 09:11:20;;;;;;;;;;;40.60;37.60;;;;;;5114274;28;19992;-63
2023/07/03 09:13:48;;;;;;;;;;;40.50;40.00;;;;;;5114456;28;20037;-63
2023/07/03 09:16:18;;;;;;;;;;;40.60;43.20;;;;;;5114418;28;20439;-63
2023/07/03 09:19:07;;;;;;;;;;;40.60;39.60;;;;;;5115605;28;20448;-65
2023/07/03 09:21:33;;;;;;;;;;;40.70;39.70;;;;;;5101892;28;19997;-64
2023/07/03 09:24:02;;;;;;;;;;;40.20;36.80;;;;;;5115149;28;19988;-64
2023/07/03 09:26:30;;;;;;;;;;;40.30;38.40;;;;;;5115849;28;20021;-63
2023/07/03 09:28:58;;;;;;;;;;;40.00;36.00;;;;;;5115814;28;20470;-65
2023/07/03 09:31:25;;;;;;;;;;;39.90;40.10;;;;;;5115735;28;20033;-64
2023/07/03 09:33:51;;;;;;;;;;;39.80;38.70;;;;;;5115744;28;20420;-64
2023/07/03 09:36:37;;;;;;;;;;;39.80;39.30;;;;;;5115415;28;19988;-63
2023/07/03 09:39:10;;;;;;;;;;;39.40;37.10;;;;;;5115879;28;19994;-64
2023/07/03 09:41:36;;;;;;;;;;;39.00;40.40;;;;;;5115545;28;20556;-64
2023/07/03 09:44:05;;;;;;;;;;;39.20;40.60;;;;;;5115331;28;19999;-64
2023/07/03 09:46:31;;;;;;;;;;;39.50;41.60;;;;;;5115314;28;20111;-63
2023/07/03 09:48:58;;;;;;;;;;;38.90;37.50;;;;;;5115701;28;19993;-63
2023/07/03 09:51:27;;;;;;;;;;;38.60;39.40;;;;;;5115375;28;19995;-64
2023/07/03 09:53:56;;;;;;;;;;;38.40;39.70;;;;;;5115588;28;20083;-64
2023/07/03 09:56:23;;;;;;;;;;;38.50;38.60;;;;;;5115068;28;20015;-63
2023/07/03 09:58:50;;;;;;;;;;;38.50;41.10;;;;;;5115075;28;19988;-63
2023/07/03 10:01:17;;;;;;;;;;;38.30;42.10;;;;;;5115405;28;20087;-65
2023/07/03 10:03:43;;;;;;;;;;;38.70;40.40;;;;;;5115115;28;19989;-65
2023/07/03 10:06:14;;;;;;;;;;;39.10;40.30;;;;;;5114692;28;19994;-64
2023/07/03 10:09:06;;;;;;;;;;;39.00;36.20;;;;;;5115067;28;19985;-64
2023/07/03 10:11:40;;;;;;;;;;;38.40;38.70;;;;;;5109906;28;19996;-65
2023/07/03 10:14:08;;;;;;;;;;;38.20;38.30;;;;;;5115018;28;20023;-64
2023/07/03 10:16:34;;;;;;;;;;;37.70;43.90;;;;;;5114678;28;20008;-64
2023/07/03 10:19:00;;;;;;;;;;;38.00;40.40;;;;;;5114864;28;20343;-63
2023/07/03 10:21:26;;;;;;;;;;;38.30;39.10;;;;;;5114634;28;19992;-63
2023/07/03 10:23:51;;;;;;;;;;;38.50;38.20;;;;;;5114687;28;19989;-64
2023/07/03 10:26:26;;;;;;;;;;;38.50;38.50;;;;;;5114056;28;20057;-64
2023/07/03 10:29:04;;;;;;;;;;;38.30;40.00;;;;;;5114670;28;19987;-64
2023/07/03 10:31:33;;;;;;;;;;;38.50;38.40;;;;;;5114831;28;19988;-63
2023/07/03 10:34:04;;;;;;;;;;;38.60;38.10;;;;;;5113413;28;20071;-65
2023/07/03 10:36:31;;;;;;;;;;;38.50;37.30;;;;;;5114266;28;20534;-62
2023/07/03 10:39:15;;;;;;;;;;;38.30;39.20;;;;;;5114562;28;20420;-63
2023/07/03 10:41:47;;;;;;;;;;;38.80;38.20;;;;;;5114786;28;20353;-64
2023/07/03 10:44:16;;;;;;;;;;;39.20;36.20;;;;;;5114846;28;20416;-64
2023/07/03 10:47:01;;;;;;;;;;;39.40;36.50;;;;;;5114286;28;20023;-65
2023/07/03 10:49:29;;;;;;;;;;;39.30;38.70;;;;;;5114096;28;19989;-64
2023/07/03 10:52:10;;;;;;;;;;;39.20;38.50;;;;;;5114376;28;20028;-64
2023/07/03 10:54:38;;;;;;;;;;;39.30;38.60;;;;;;5114212;28;19991;-65
2023/07/03 10:57:06;;;;;;;;;;;39.30;40.30;;;;;;5113400;28;20008;-64
2023/07/03 10:59:35;;;;;;;;;;;39.20;41.30;;;;;;5114321;28;20115;-65
2023/07/03 11:02:15;;;;;;;;;;;39.20;39.30;;;;;;5114396;28;20079;-65
2023/07/03 11:05:00;;;;;;;;;;;39.20;41.00;;;;;;5113491;28;19996;-65
2023/07/03 11:07:34;;;;;;;;;;;39.20;37.10;;;;;;5113873;28;19985;-63
2023/07/03 11:10:08;;;;;;;;;;;38.80;40.00;;;;;;5114143;28;19985;-65
2023/07/03 11:12:50;;;;;;;;;;;39.00;37.10;;;;;;5114040;28;19984;-64
2023/07/03 11:15:25;;;;;;;;;;;39.00;38.80;;;;;;5114439;28;19988;-65
2023/07/03 11:18:09;;;;;;;;;;;39.20;38.30;;;;;;5112599;28;20110;-63
2023/07/03 11:20:38;;;;;;;;;;;39.10;39.10;;;;;;5112150;28;19995;-62
2023/07/03 11:23:07;;;;;;;;;;;39.40;38.30;;;;;;5113599;28;19993;-63
2023/07/03 11:25:46;;;;;;;;;;;39.70;38.70;;;;;;5113735;28;20125;-65
2023/07/03 11:28:26;;;;;;;;;;;39.50;37.80;;;;;;5113704;28;20091;-64
2023/07/03 11:30:52;;;;;;;;;;;39.00;39.70;;;;;;5113904;28;20434;-63
2023/07/03 11:33:18;;;;;;;;;;;38.60;36.90;;;;;;5113677;28;19989;-63
2023/07/03 11:35:53;;;;;;;;;;;38.20;40.10;;;;;;5113745;28;19989;-63
2023/07/03 11:38:19;;;;;;;;;;;38.60;38.40;;;;;;5115651;28;20008;-65
2023/07/03 11:40:53;;;;;;;;;;;38.80;39.70;;;;;;5117862;28;19992;-64
2023/07/03 11:43:22;;;;;;;;;;;39.00;37.80;;;;;;5118138;28;20017;-64
2023/07/03 11:46:08;;;;;;;;;;;38.90;37.60;;;;;;5117701;28;20051;-63
2023/07/03 11:48:41;;;;;;;;;;;38.70;36.40;;;;;;5116822;28;19992;-65
2023/07/03 11:51:08;;;;;;;;;;;38.50;36.60;;;;;;5117841;28;20359;-64
2023/07/03 11:53:35;;;;;;;;;;;38.10;39.60;;;;;;5117933;28;20042;-63
2023/07/03 11:56:01;;;;;;;;;;;38.50;41.80;;;;;;5117652;28;20100;-64
2023/07/03 11:58:29;;;;;;;;;;;38.70;39.70;;;;;;5117684;28;20016;-64
2023/07/03 12:01:13;;;;;;;;;;;38.30;38.00;;;;;;5117742;28;20088;-65
2023/07/03 12:03:55;;;;;;;;;;;38.10;38.70;;;;;;5117528;28;19984;-65
2023/07/03 12:06:39;;;;;;;;;;;38.20;40.50;;;;;;5117458;28;20447;-63
2023/07/03 12:09:17;;;;;;;;;;;38.80;38.80;;;;;;5117281;28;19988;-63
2023/07/03 12:12:06;;;;;;;;;;;39.00;40.20;;;;;;5117619;28;19992;-65
2023/07/03 12:14:41;;;;;;;;;;;39.10;36.50;;;;;;5117287;28;20049;-65
2023/07/03 12:17:19;;;;;;;;;;;38.80;39.10;;;;;;5117011;28;20008;-62
2023/07/03 12:19:46;;;;;;;;;;;38.80;37.80;;;;;;5117082;28;20502;-64
2023/07/03 12:22:13;;;;;;;;;;;38.60;40.10;;;;;;5117436;28;19988;-63
2023/07/03 12:24:38;;;;;;;;;;;38.60;39.10;;;;;;5117383;28;19989;-63
2023/07/03 12:27:05;;;;;;;;;;;38.10;40.30;;;;;;5116973;28;20443;-64
2023/07/03 12:29:33;;;;;;;;;;;37.70;38.30;;;;;;5116962;28;20088;-64
2023/07/03 12:32:05;;;;;;;;;;;37.60;39.90;;;;;;5117034;28;19988;-65
2023/07/03 12:34:31;;;;;;;;;;;37.90;38.80;;;;;;5116800;28;20563;-65
2023/07/03 12:36:58;;;;;;;;;;;38.30;37.70;;;;;;5116856;28;20027;-64
2023/07/03 12:39:24;;;;;;;;;;;38.00;36.90;;;;;;5117092;28;20109;-62
2023/07/03 12:41:49;;;;;;;;;;;37.90;40.30;;;;;;5116965;28;20010;-65
2023/07/03 12:44:15;;;;;;;;;;;37.70;36.20;;;;;;5117088;28;19988;-63
2023/07/03 12:46:44;;;;;;;;;;;37.60;38.90;;;;;;5116343;28;20032;-64
2023/07/03 12:49:11;;;;;;;;;;;37.70;37.20;;;;;;5116103;28;19993;-62
2023/07/03 12:51:50;;;;;;;;;;;37.60;36.70;;;;;;5116480;28;19984;-62
2023/07/03 12:54:18;;;;;;;;;;;37.30;37.60;;;;;;5116092;28;20384;-65
2023/07/03 12:56:44;;;;;;;;;;;37.00;37.30;;;;;;5116539;28;20017;-64
2023/07/03 12:59:11;;;;;;;;;;;37.20;37.90;;;;;;5116418;28;20038;-63
2023/07/03 13:01:38;;;;;;;;;;;37.30;38.40;;;;;;5116199;28;19989;-63
2023/07/03 13:04:04;;;;;;;;;;;37.60;42.80;;;;;;5116290;28;20457;-65
2023/07/03 13:06:30;;;;;;;;;;;37.80;39.60;;;;;;5116301;28;19988;-64
2023/07/03 13:08:57;;;;;;;;;;;37.80;40.60;;;;;;5116499;28;19988;-65
2023/07/03 13:11:43;;;;;;;;;;;37.80;40.30;;;;;;5116136;28;19985;-64
2023/07/03 13:14:10;;;;;;;;;;;37.80;38.50;;;;;;5116041;28;20071;-64
2023/07/03 13:16:36;;;;;;;;;;;37.50;37.50;;;;;;5115970;28;20062;-65
2023/07/03 13:19:03;;;;;;;;;;;37.30;38.50;;;;;;5116296;28;19988;-63
2023/07/03 13:21:29;;;;;;;;;;;37.30;39.80;;;;;;5116285;28;20496;-64
2023/07/03 13:24:03;;;;;;;;;;;37.40;39.30;;;;;;5116058;28;20037;-64
2023/07/03 13:26:29;;;;;;;;;;;37.00;37.60;;;;;;5115946;28;19984;-63
2023/07/03 13:28:58;;;;;;;;;;;36.70;40.60;;;;;;5115941;28;20477;-62
2023/07/03 13:31:25;;;;;;;;;;;36.50;38.60;;;;;;5115994;28;19993;-62
2023/07/03 13:33:59;;;;;;;;;;;36.50;38.50;;;;;;5115705;28;19997;-64
2023/07/03 13:36:26;;;;;;;;;;;36.60;38.80;;;;;;5115772;28;20339;-65
2023/07/03 13:39:03;;;;;;;;;;;36.90;39.20;;;;;;5115801;28;19988;-63
2023/07/03 13:41:29;;;;;;;;;;;37.00;38.40;;;;;;5115895;28;20397;-63
2023/07/03 13:43:58;;;;;;;;;;;36.90;40.50;;;;;;5115547;28;20030;-65
2023/07/03 13:46:24;;;;;;;;;;;37.10;38.30;;;;;;5115308;28;20566;-65
2023/07/03 13:48:50;;;;;;;;;;;37.40;38.60;;;;;;5115552;28;19996;-64
2023/07/03 13:51:15;;;;;;;;;;;37.00;37.60;;;;;;5115351;28;20351;-63
2023/07/03 13:53:41;;;;;;;;;;;36.70;39.70;;;;;;5115321;28;20038;-63
2023/07/03 13:56:06;;;;;;;;;;;36.70;38.30;;;;;;5115610;28;20477;-65
2023/07/03 13:58:32;;;;;;;;;;;36.50;37.20;;;;;;5115272;28;20371;-65
2023/07/03 14:00:58;;;;;;;;;;;36.40;38.40;;;;;;5114944;28;20385;-62
2023/07/03 14:03:23;;;;;;;;;;;36.10;38.40;;;;;;5115292;28;20075;-63
2023/07/03 14:05:50;;;;;;;;;;;36.10;39.20;;;;;;5115216;28;20407;-63
2023/07/03 14:08:15;;;;;;;;;;;36.30;42.90;;;;;;5115243;28;20011;-64
2023/07/03 14:10:41;;;;;;;;;;;36.70;40.60;;;;;;5115318;28;20431;-63
2023/07/03 14:13:08;;;;;;;;;;;36.90;39.30;;;;;;5114842;28;20340;-63
2023/07/03 14:15:34;;;;;;;;;;;36.80;38.50;;;;;;5114907;28;19989;-63
2023/07/03 14:18:00;;;;;;;;;;;36.80;39.30;;;;;;5114839;28;20012;-62
2023/07/03 14:20:25;;;;;;;;;;;36.90;38.40;;;;;;5114777;28;20042;-64